sensor_id;sensor_type;location;lat;lon;timestamp;temperature;humidity
22716;DHT22;11525;51.152;4.456;2024-03-02T00:00:24;7.80;99.90
22716;DHT22;11525;51.152;4.456;2024-03-02T00:02:51;7.90;99.90
22716;DHT22;11525;51.152;4.456;2024-03-02T00:05:21;8.00;99.90
22716;DHT22;11525;51.152;4.456;2024-03-02T00:07:55;7.90;99.90
22716;DHT22;11525;51.152;4.456;2024-03-02T00:10:38;7.70;99.90
22716;DHT22;11525;51.152;4.456;2024-03-02T00:13:11;7.70;99.90
22716;DHT22;11525;51.152;4.456;2024-03-02T00:15:49;7.80;99.90
22716;DHT22;11525;51.152;4.456;2024-03-02T00:18:20;7.80;99.90
22716;DHT22;11525;51.152;4.456;2024-03-02T00:20:46;7.70;99.90
22716;DHT22;11525;51.152;4.456;2024-03-02T00:23:15;7.70;99.90
22716;DHT22;11525;51.152;4.456;2024-03-02T00:25:44;7.60;99.90
22716;DHT22;11525;51.152;4.456;2024-03-02T00:28:16;7.50;99.90
22716;DHT22;11525;51.152;4.456;2024-03-02T00:33:08;7.50;99.90
22716;DHT22;11525;51.152;4.456;2024-03-02T00:35:35;7.50;99.90
22716;DHT22;11525;51.152;4.456;2024-03-02T00:38:05;7.40;99.90
22716;DHT22;11525;51.152;4.456;2024-03-02T00:40:31;7.60;99.90
22716;DHT22;11525;51.152;4.456;2024-03-02T00:42:58;7.60;99.90
22716;DHT22;11525;51.152;4.456;2024-03-02T00:45:24;7.50;99.90
22716;DHT22;11525;51.152;4.456;2024-03-02T00:47:51;7.50;99.90
22716;DHT22;11525;51.152;4.456;2024-03-02T00:50:17;7.60;99.90
22716;DHT22;11525;51.152;4.456;2024-03-02T00:52:43;7.70;99.90
22716;DHT22;11525;51.152;4.456;2024-03-02T00:55:09;7.80;99.90
22716;DHT22;11525;51.152;4.456;2024-03-02T00:57:34;7.80;99.90
22716;DHT22;11525;51.152;4.456;2024-03-02T01:00:01;7.90;99.90
22716;DHT22;11525;51.152;4.456;2024-03-02T01:02:27;7.70;99.90
22716;DHT22;11525;51.152;4.456;2024-03-02T01:04:53;7.70;99.90
22716;DHT22;11525;51.152;4.456;2024-03-02T01:07:19;7.60;99.90
22716;DHT22;11525;51.152;4.456;2024-03-02T01:09:44;7.60;99.90
22716;DHT22;11525;51.152;4.456;2024-03-02T01:12:10;7.70;99.90
22716;DHT22;11525;51.152;4.456;2024-03-02T01:14:36;7.70;99.90
22716;DHT22;11525;51.152;4.456;2024-03-02T01:17:01;7.70;99.90
22716;DHT22;11525;51.152;4.456;2024-03-02T01:19:29;7.80;99.90
22716;DHT22;11525;51.152;4.456;2024-03-02T01:21:55;7.80;99.90
22716;DHT22;11525;51.152;4.456;2024-03-02T01:24:21;7.80;99.90
22716;DHT22;11525;51.152;4.456;2024-03-02T01:26:47;7.80;99.90
22716;DHT22;11525;51.152;4.456;2024-03-02T01:29:12;7.80;99.90
22716;DHT22;11525;51.152;4.456;2024-03-02T01:31:38;7.80;99.90
22716;DHT22;11525;51.152;4.456;2024-03-02T01:34:07;7.90;99.90
22716;DHT22;11525;51.152;4.456;2024-03-02T01:36:33;7.90;99.90
22716;DHT22;11525;51.152;4.456;2024-03-02T01:38:59;7.80;99.90
22716;DHT22;11525;51.152;4.456;2024-03-02T01:41:25;7.80;99.90
22716;DHT22;11525;51.152;4.456;2024-03-02T01:43:50;7.80;99.90
22716;DHT22;11525;51.152;4.456;2024-03-02T01:46:16;7.80;99.90
22716;DHT22;11525;51.152;4.456;2024-03-02T01:48:42;7.70;99.90
22716;DHT22;11525;51.152;4.456;2024-03-02T01:51:07;7.90;99.90
22716;DHT22;11525;51.152;4.456;2024-03-02T01:53:34;8.00;99.90
22716;DHT22;11525;51.152;4.456;2024-03-02T01:56:00;7.80;99.90
22716;DHT22;11525;51.152;4.456;2024-03-02T01:58:27;7.90;99.90
22716;DHT22;11525;51.152;4.456;2024-03-02T02:00:52;7.80;99.90
22716;DHT22;11525;51.152;4.456;2024-03-02T02:03:18;7.80;99.90
22716;DHT22;11525;51.152;4.456;2024-03-02T02:05:44;7.80;99.90
22716;DHT22;11525;51.152;4.456;2024-03-02T02:08:10;7.80;99.90
22716;DHT22;11525;51.152;4.456;2024-03-02T02:10:36;7.90;99.90
22716;DHT22;11525;51.152;4.456;2024-03-02T02:13:02;7.80;99.90
22716;DHT22;11525;51.152;4.456;2024-03-02T02:15:29;7.90;99.90
22716;DHT22;11525;51.152;4.456;2024-03-02T02:17:56;7.80;99.90
22716;DHT22;11525;51.152;4.456;2024-03-02T02:20:23;7.90;99.90
22716;DHT22;11525;51.152;4.456;2024-03-02T02:23:00;8.00;99.90
22716;DHT22;11525;51.152;4.456;2024-03-02T02:25:27;8.00;99.90
22716;DHT22;11525;51.152;4.456;2024-03-02T02:27:53;8.20;99.90
22716;DHT22;11525;51.152;4.456;2024-03-02T02:30:26;8.10;99.90
22716;DHT22;11525;51.152;4.456;2024-03-02T02:32:52;8.10;99.90
22716;DHT22;11525;51.152;4.456;2024-03-02T02:35:18;8.20;99.90
22716;DHT22;11525;51.152;4.456;2024-03-02T02:37:45;8.10;99.90
22716;DHT22;11525;51.152;4.456;2024-03-02T02:40:11;8.00;99.90
22716;DHT22;11525;51.152;4.456;2024-03-02T02:42:38;7.90;99.90
22716;DHT22;11525;51.152;4.456;2024-03-02T02:45:04;7.90;99.90
22716;DHT22;11525;51.152;4.456;2024-03-02T02:47:30;8.00;99.90
22716;DHT22;11525;51.152;4.456;2024-03-02T02:49:55;8.00;99.90
22716;DHT22;11525;51.152;4.456;2024-03-02T02:52:21;7.90;99.90
22716;DHT22;11525;51.152;4.456;2024-03-02T02:54:47;7.80;99.90
22716;DHT22;11525;51.152;4.456;2024-03-02T02:57:13;7.70;99.90
22716;DHT22;11525;51.152;4.456;2024-03-02T02:59:38;7.80;99.90
22716;DHT22;11525;51.152;4.456;2024-03-02T03:02:04;7.80;99.90
22716;DHT22;11525;51.152;4.456;2024-03-02T03:04:30;7.80;99.90
22716;DHT22;11525;51.152;4.456;2024-03-02T03:06:56;8.00;99.90
22716;DHT22;11525;51.152;4.456;2024-03-02T03:09:21;8.10;99.90
22716;DHT22;11525;51.152;4.456;2024-03-02T03:11:47;8.00;99.90
22716;DHT22;11525;51.152;4.456;2024-03-02T03:14:13;8.10;99.90
22716;DHT22;11525;51.152;4.456;2024-03-02T03:16:38;8.10;99.90
22716;DHT22;11525;51.152;4.456;2024-03-02T03:19:04;8.00;99.90
22716;DHT22;11525;51.152;4.456;2024-03-02T03:21:29;7.80;99.90
22716;DHT22;11525;51.152;4.456;2024-03-02T03:23:55;8.00;99.90
22716;DHT22;11525;51.152;4.456;2024-03-02T03:26:21;8.00;99.90
22716;DHT22;11525;51.152;4.456;2024-03-02T03:28:46;8.00;99.90
22716;DHT22;11525;51.152;4.456;2024-03-02T03:31:12;8.00;99.90
22716;DHT22;11525;51.152;4.456;2024-03-02T03:33:37;7.90;99.90
22716;DHT22;11525;51.152;4.456;2024-03-02T03:36:03;7.90;99.90
22716;DHT22;11525;51.152;4.456;2024-03-02T03:38:29;7.90;99.90
22716;DHT22;11525;51.152;4.456;2024-03-02T03:40:55;7.80;99.90
22716;DHT22;11525;51.152;4.456;2024-03-02T03:43:21;7.90;99.90
22716;DHT22;11525;51.152;4.456;2024-03-02T03:45:47;7.90;99.90
22716;DHT22;11525;51.152;4.456;2024-03-02T03:48:12;7.80;99.90
22716;DHT22;11525;51.152;4.456;2024-03-02T03:50:38;7.80;99.90
22716;DHT22;11525;51.152;4.456;2024-03-02T03:53:04;7.80;99.90
22716;DHT22;11525;51.152;4.456;2024-03-02T03:55:29;7.60;99.90
22716;DHT22;11525;51.152;4.456;2024-03-02T03:57:55;7.50;99.90
22716;DHT22;11525;51.152;4.456;2024-03-02T04:00:20;7.60;99.90
22716;DHT22;11525;51.152;4.456;2024-03-02T04:02:47;7.50;99.90
22716;DHT22;11525;51.152;4.456;2024-03-02T04:05:13;7.50;99.90
22716;DHT22;11525;51.152;4.456;2024-03-02T04:07:38;7.40;99.90
22716;DHT22;11525;51.152;4.456;2024-03-02T04:10:07;7.40;99.90
22716;DHT22;11525;51.152;4.456;2024-03-02T04:12:34;7.30;99.90
22716;DHT22;11525;51.152;4.456;2024-03-02T04:15:00;7.30;99.90
22716;DHT22;11525;51.152;4.456;2024-03-02T04:17:27;7.20;99.90
22716;DHT22;11525;51.152;4.456;2024-03-02T04:19:53;7.20;99.90
22716;DHT22;11525;51.152;4.456;2024-03-02T04:22:18;7.20;99.90
22716;DHT22;11525;51.152;4.456;2024-03-02T04:24:44;7.30;99.90
22716;DHT22;11525;51.152;4.456;2024-03-02T04:27:09;7.30;99.90
22716;DHT22;11525;51.152;4.456;2024-03-02T04:29:35;7.40;99.90
22716;DHT22;11525;51.152;4.456;2024-03-02T04:32:01;7.30;99.90
22716;DHT22;11525;51.152;4.456;2024-03-02T04:34:26;7.10;99.90
22716;DHT22;11525;51.152;4.456;2024-03-02T04:36:52;7.30;99.90
22716;DHT22;11525;51.152;4.456;2024-03-02T04:39:17;7.30;99.90
22716;DHT22;11525;51.152;4.456;2024-03-02T04:41:43;7.20;99.90
22716;DHT22;11525;51.152;4.456;2024-03-02T04:44:09;7.30;99.90
22716;DHT22;11525;51.152;4.456;2024-03-02T04:46:35;7.20;99.90
22716;DHT22;11525;51.152;4.456;2024-03-02T04:49:00;7.00;99.90
22716;DHT22;11525;51.152;4.456;2024-03-02T04:51:26;6.90;99.90
22716;DHT22;11525;51.152;4.456;2024-03-02T04:53:51;6.80;99.90
22716;DHT22;11525;51.152;4.456;2024-03-02T04:56:17;6.90;99.90
22716;DHT22;11525;51.152;4.456;2024-03-02T04:58:51;7.10;99.90
22716;DHT22;11525;51.152;4.456;2024-03-02T05:01:17;7.20;99.90
22716;DHT22;11525;51.152;4.456;2024-03-02T05:03:42;7.40;99.90
22716;DHT22;11525;51.152;4.456;2024-03-02T05:06:08;7.30;99.90
22716;DHT22;11525;51.152;4.456;2024-03-02T05:08:34;7.30;99.90
22716;DHT22;11525;51.152;4.456;2024-03-02T05:11:02;7.20;99.90
22716;DHT22;11525;51.152;4.456;2024-03-02T05:13:54;7.10;99.90
22716;DHT22;11525;51.152;4.456;2024-03-02T05:16:20;7.30;99.90
22716;DHT22;11525;51.152;4.456;2024-03-02T05:18:45;7.30;99.90
22716;DHT22;11525;51.152;4.456;2024-03-02T05:21:11;7.10;99.90
22716;DHT22;11525;51.152;4.456;2024-03-02T05:23:37;6.90;99.90
22716;DHT22;11525;51.152;4.456;2024-03-02T05:26:02;6.80;99.90
22716;DHT22;11525;51.152;4.456;2024-03-02T05:28:28;6.70;99.90
22716;DHT22;11525;51.152;4.456;2024-03-02T05:30:53;6.80;99.90
22716;DHT22;11525;51.152;4.456;2024-03-02T05:33:20;6.80;99.90
22716;DHT22;11525;51.152;4.456;2024-03-02T05:35:48;6.60;99.90
22716;DHT22;11525;51.152;4.456;2024-03-02T05:38:15;6.60;99.90
22716;DHT22;11525;51.152;4.456;2024-03-02T05:40:41;6.50;99.90
22716;DHT22;11525;51.152;4.456;2024-03-02T05:43:06;6.40;99.90
22716;DHT22;11525;51.152;4.456;2024-03-02T05:45:32;6.40;99.90
22716;DHT22;11525;51.152;4.456;2024-03-02T05:47:58;6.30;99.90
22716;DHT22;11525;51.152;4.456;2024-03-02T05:50:23;6.30;99.90
22716;DHT22;11525;51.152;4.456;2024-03-02T05:52:49;6.40;99.90
22716;DHT22;11525;51.152;4.456;2024-03-02T05:55:15;6.40;99.90
22716;DHT22;11525;51.152;4.456;2024-03-02T05:57:40;6.30;99.90
22716;DHT22;11525;51.152;4.456;2024-03-02T06:00:06;6.30;99.90
22716;DHT22;11525;51.152;4.456;2024-03-02T06:02:33;6.20;99.90
22716;DHT22;11525;51.152;4.456;2024-03-02T06:05:00;6.20;99.90
22716;DHT22;11525;51.152;4.456;2024-03-02T06:07:26;6.30;99.90
22716;DHT22;11525;51.152;4.456;2024-03-02T06:09:52;6.30;99.90
22716;DHT22;11525;51.152;4.456;2024-03-02T06:12:18;6.30;99.90
22716;DHT22;11525;51.152;4.456;2024-03-02T06:14:44;6.20;99.90
22716;DHT22;11525;51.152;4.456;2024-03-02T06:17:10;6.10;99.90
22716;DHT22;11525;51.152;4.456;2024-03-02T06:19:35;6.20;99.90
22716;DHT22;11525;51.152;4.456;2024-03-02T06:22:01;6.20;99.90
22716;DHT22;11525;51.152;4.456;2024-03-02T06:24:27;6.20;99.90
22716;DHT22;11525;51.152;4.456;2024-03-02T06:26:52;6.10;99.90
22716;DHT22;11525;51.152;4.456;2024-03-02T06:29:18;6.10;99.90
22716;DHT22;11525;51.152;4.456;2024-03-02T06:31:44;6.10;99.90
22716;DHT22;11525;51.152;4.456;2024-03-02T06:34:09;6.10;99.90
22716;DHT22;11525;51.152;4.456;2024-03-02T06:36:35;6.20;99.90
22716;DHT22;11525;51.152;4.456;2024-03-02T06:39:01;6.10;99.90
22716;DHT22;11525;51.152;4.456;2024-03-02T06:41:26;6.10;99.90
22716;DHT22;11525;51.152;4.456;2024-03-02T06:43:52;6.10;99.90
22716;DHT22;11525;51.152;4.456;2024-03-02T06:46:25;6.10;99.90
22716;DHT22;11525;51.152;4.456;2024-03-02T06:48:50;6.10;99.90
22716;DHT22;11525;51.152;4.456;2024-03-02T06:51:16;6.00;99.90
22716;DHT22;11525;51.152;4.456;2024-03-02T06:53:42;6.00;99.90
22716;DHT22;11525;51.152;4.456;2024-03-02T06:56:08;6.00;99.90
22716;DHT22;11525;51.152;4.456;2024-03-02T06:58:33;6.00;99.90
22716;DHT22;11525;51.152;4.456;2024-03-02T07:00:59;6.10;99.90
22716;DHT22;11525;51.152;4.456;2024-03-02T07:03:26;6.20;99.90
22716;DHT22;11525;51.152;4.456;2024-03-02T07:05:51;6.10;99.90
22716;DHT22;11525;51.152;4.456;2024-03-02T07:08:17;6.30;99.90
22716;DHT22;11525;51.152;4.456;2024-03-02T07:10:42;6.40;99.90
22716;DHT22;11525;51.152;4.456;2024-03-02T07:13:08;6.40;99.90
22716;DHT22;11525;51.152;4.456;2024-03-02T07:15:34;6.30;99.90
22716;DHT22;11525;51.152;4.456;2024-03-02T07:18:15;6.30;99.90
22716;DHT22;11525;51.152;4.456;2024-03-02T07:20:41;6.30;99.90
22716;DHT22;11525;51.152;4.456;2024-03-02T07:23:06;6.40;99.90
22716;DHT22;11525;51.152;4.456;2024-03-02T07:25:32;6.40;99.90
22716;DHT22;11525;51.152;4.456;2024-03-02T07:27:58;6.60;99.90
22716;DHT22;11525;51.152;4.456;2024-03-02T07:30:24;6.50;99.90
22716;DHT22;11525;51.152;4.456;2024-03-02T07:32:52;6.60;99.90
22716;DHT22;11525;51.152;4.456;2024-03-02T07:35:18;6.50;99.90
22716;DHT22;11525;51.152;4.456;2024-03-02T07:37:44;6.50;99.90
22716;DHT22;11525;51.152;4.456;2024-03-02T07:40:10;6.80;99.90
22716;DHT22;11525;51.152;4.456;2024-03-02T07:42:43;6.90;99.90
22716;DHT22;11525;51.152;4.456;2024-03-02T07:45:08;6.80;99.90
22716;DHT22;11525;51.152;4.456;2024-03-02T07:47:35;7.20;99.90
22716;DHT22;11525;51.152;4.456;2024-03-02T07:50:01;7.60;99.90
22716;DHT22;11525;51.152;4.456;2024-03-02T07:52:26;7.90;99.90
22716;DHT22;11525;51.152;4.456;2024-03-02T07:54:52;8.50;99.90
22716;DHT22;11525;51.152;4.456;2024-03-02T07:57:17;8.80;99.90
22716;DHT22;11525;51.152;4.456;2024-03-02T07:59:43;9.20;99.90
22716;DHT22;11525;51.152;4.456;2024-03-02T08:02:09;9.30;99.90
22716;DHT22;11525;51.152;4.456;2024-03-02T08:04:35;9.30;99.90
22716;DHT22;11525;51.152;4.456;2024-03-02T08:07:02;9.40;99.90
22716;DHT22;11525;51.152;4.456;2024-03-02T08:09:28;9.40;99.90
22716;DHT22;11525;51.152;4.456;2024-03-02T08:11:54;9.90;99.90
22716;DHT22;11525;51.152;4.456;2024-03-02T08:14:19;10.20;99.90
22716;DHT22;11525;51.152;4.456;2024-03-02T08:16:45;10.00;99.90
22716;DHT22;11525;51.152;4.456;2024-03-02T08:19:11;10.40;99.90
22716;DHT22;11525;51.152;4.456;2024-03-02T08:21:37;10.50;99.90
22716;DHT22;11525;51.152;4.456;2024-03-02T08:24:03;10.70;99.90
22716;DHT22;11525;51.152;4.456;2024-03-02T08:26:29;10.90;99.90
22716;DHT22;11525;51.152;4.456;2024-03-02T08:28:57;10.70;99.90
22716;DHT22;11525;51.152;4.456;2024-03-02T08:31:23;11.20;99.90
22716;DHT22;11525;51.152;4.456;2024-03-02T08:33:48;10.90;99.90
22716;DHT22;11525;51.152;4.456;2024-03-02T08:36:14;11.40;99.90
22716;DHT22;11525;51.152;4.456;2024-03-02T08:38:41;12.10;99.90
22716;DHT22;11525;51.152;4.456;2024-03-02T08:41:07;12.30;99.90
22716;DHT22;11525;51.152;4.456;2024-03-02T08:43:33;12.90;99.90
22716;DHT22;11525;51.152;4.456;2024-03-02T08:45:59;13.50;99.90
22716;DHT22;11525;51.152;4.456;2024-03-02T08:48:24;13.80;99.90
22716;DHT22;11525;51.152;4.456;2024-03-02T08:50:50;14.50;99.90
22716;DHT22;11525;51.152;4.456;2024-03-02T08:53:15;14.90;99.90
22716;DHT22;11525;51.152;4.456;2024-03-02T08:55:47;15.40;99.90
22716;DHT22;11525;51.152;4.456;2024-03-02T08:58:13;16.70;99.90
22716;DHT22;11525;51.152;4.456;2024-03-02T09:00:39;17.00;99.90
22716;DHT22;11525;51.152;4.456;2024-03-02T09:03:04;16.80;99.90
22716;DHT22;11525;51.152;4.456;2024-03-02T09:05:30;18.00;99.90
22716;DHT22;11525;51.152;4.456;2024-03-02T09:07:56;19.20;96.20
22716;DHT22;11525;51.152;4.456;2024-03-02T09:10:21;19.40;92.70
22716;DHT22;11525;51.152;4.456;2024-03-02T09:12:47;19.80;91.10
22716;DHT22;11525;51.152;4.456;2024-03-02T09:15:13;19.40;90.40
22716;DHT22;11525;51.152;4.456;2024-03-02T09:17:38;19.70;88.70
22716;DHT22;11525;51.152;4.456;2024-03-02T09:20:05;19.70;82.80
22716;DHT22;11525;51.152;4.456;2024-03-02T09:22:31;18.20;90.20
22716;DHT22;11525;51.152;4.456;2024-03-02T09:24:57;18.50;91.10
22716;DHT22;11525;51.152;4.456;2024-03-02T09:27:23;17.90;90.50
22716;DHT22;11525;51.152;4.456;2024-03-02T09:29:49;17.80;92.10
22716;DHT22;11525;51.152;4.456;2024-03-02T09:32:15;19.20;89.60
22716;DHT22;11525;51.152;4.456;2024-03-02T09:34:41;19.80;85.10
22716;DHT22;11525;51.152;4.456;2024-03-02T09:37:06;20.40;82.60
22716;DHT22;11525;51.152;4.456;2024-03-02T09:39:33;20.40;78.60
22716;DHT22;11525;51.152;4.456;2024-03-02T09:42:02;20.10;80.00
22716;DHT22;11525;51.152;4.456;2024-03-02T09:44:29;20.40;78.60
22716;DHT22;11525;51.152;4.456;2024-03-02T09:46:55;20.10;79.40
22716;DHT22;11525;51.152;4.456;2024-03-02T09:49:21;20.40;78.80
22716;DHT22;11525;51.152;4.456;2024-03-02T09:51:48;20.00;75.60
22716;DHT22;11525;51.152;4.456;2024-03-02T09:54:16;19.60;78.00
22716;DHT22;11525;51.152;4.456;2024-03-02T09:56:41;19.50;77.00
22716;DHT22;11525;51.152;4.456;2024-03-02T09:59:07;18.70;80.40
22716;DHT22;11525;51.152;4.456;2024-03-02T10:01:33;18.00;83.40
22716;DHT22;11525;51.152;4.456;2024-03-02T10:03:59;16.40;89.30
22716;DHT22;11525;51.152;4.456;2024-03-02T10:06:26;16.40;91.90
22716;DHT22;11525;51.152;4.456;2024-03-02T10:08:53;16.20;91.70
22716;DHT22;11525;51.152;4.456;2024-03-02T10:11:28;15.80;92.40
22716;DHT22;11525;51.152;4.456;2024-03-02T10:14:10;15.20;93.20
22716;DHT22;11525;51.152;4.456;2024-03-02T10:16:37;14.90;95.50
22716;DHT22;11525;51.152;4.456;2024-03-02T10:19:19;14.30;98.00
22716;DHT22;11525;51.152;4.456;2024-03-02T10:21:55;14.20;98.40
22716;DHT22;11525;51.152;4.456;2024-03-02T10:24:23;14.00;99.60
22716;DHT22;11525;51.152;4.456;2024-03-02T10:26:50;13.70;99.90
22716;DHT22;11525;51.152;4.456;2024-03-02T10:29:16;13.40;99.90
22716;DHT22;11525;51.152;4.456;2024-03-02T10:31:43;13.60;99.90
22716;DHT22;11525;51.152;4.456;2024-03-02T10:34:10;14.70;99.90
22716;DHT22;11525;51.152;4.456;2024-03-02T10:36:37;15.70;99.20
22716;DHT22;11525;51.152;4.456;2024-03-02T10:39:06;17.60;94.10
22716;DHT22;11525;51.152;4.456;2024-03-02T10:41:36;16.50;92.70
22716;DHT22;11525;51.152;4.456;2024-03-02T10:44:07;16.30;93.90
22716;DHT22;11525;51.152;4.456;2024-03-02T10:46:34;15.70;94.50
22716;DHT22;11525;51.152;4.456;2024-03-02T10:49:01;15.80;96.10
22716;DHT22;11525;51.152;4.456;2024-03-02T10:51:28;15.90;95.80
22716;DHT22;11525;51.152;4.456;2024-03-02T10:53:57;15.60;94.50
22716;DHT22;11525;51.152;4.456;2024-03-02T10:56:34;15.80;94.60
22716;DHT22;11525;51.152;4.456;2024-03-02T11:01:43;14.30;97.70
22716;DHT22;11525;51.152;4.456;2024-03-02T11:04:09;14.20;99.90
22716;DHT22;11525;51.152;4.456;2024-03-02T11:06:38;13.80;99.90
22716;DHT22;11525;51.152;4.456;2024-03-02T11:09:08;13.90;99.90
22716;DHT22;11525;51.152;4.456;2024-03-02T11:11:38;13.40;99.90
22716;DHT22;11525;51.152;4.456;2024-03-02T11:14:07;13.10;99.90
22716;DHT22;11525;51.152;4.456;2024-03-02T11:16:37;12.80;99.90
22716;DHT22;11525;51.152;4.456;2024-03-02T11:19:14;12.80;99.90
22716;DHT22;11525;51.152;4.456;2024-03-02T11:21:41;12.90;99.90
22716;DHT22;11525;51.152;4.456;2024-03-02T11:26:51;13.40;99.90
22716;DHT22;11525;51.152;4.456;2024-03-02T11:32:01;13.20;99.90
22716;DHT22;11525;51.152;4.456;2024-03-02T11:34:34;13.10;99.90
22716;DHT22;11525;51.152;4.456;2024-03-02T11:37:04;13.40;99.90
22716;DHT22;11525;51.152;4.456;2024-03-02T11:39:30;13.40;99.90
22716;DHT22;11525;51.152;4.456;2024-03-02T11:41:57;13.20;99.90
22716;DHT22;11525;51.152;4.456;2024-03-02T11:44:26;12.90;99.90
22716;DHT22;11525;51.152;4.456;2024-03-02T11:46:58;12.90;99.90
22716;DHT22;11525;51.152;4.456;2024-03-02T11:49:38;13.10;99.90
22716;DHT22;11525;51.152;4.456;2024-03-02T11:52:05;13.10;99.90
22716;DHT22;11525;51.152;4.456;2024-03-02T11:54:33;13.10;99.90
22716;DHT22;11525;51.152;4.456;2024-03-02T11:57:02;13.60;99.90
22716;DHT22;11525;51.152;4.456;2024-03-02T11:59:29;13.70;99.90
22716;DHT22;11525;51.152;4.456;2024-03-02T12:01:55;13.70;99.90
22716;DHT22;11525;51.152;4.456;2024-03-02T12:04:22;13.60;99.90
22716;DHT22;11525;51.152;4.456;2024-03-02T12:06:57;13.90;99.90
22716;DHT22;11525;51.152;4.456;2024-03-02T12:09:29;14.20;99.90
22716;DHT22;11525;51.152;4.456;2024-03-02T12:12:05;14.40;99.90
22716;DHT22;11525;51.152;4.456;2024-03-02T12:14:32;14.00;99.90
22716;DHT22;11525;51.152;4.456;2024-03-02T12:16:58;13.90;99.90
22716;DHT22;11525;51.152;4.456;2024-03-02T12:19:28;14.20;99.90
22716;DHT22;11525;51.152;4.456;2024-03-02T12:21:59;14.30;99.90
22716;DHT22;11525;51.152;4.456;2024-03-02T12:24:27;14.20;99.90
22716;DHT22;11525;51.152;4.456;2024-03-02T12:26:53;13.80;99.90
22716;DHT22;11525;51.152;4.456;2024-03-02T12:29:20;13.70;99.90
22716;DHT22;11525;51.152;4.456;2024-03-02T12:31:48;13.60;99.90
22716;DHT22;11525;51.152;4.456;2024-03-02T12:34:15;13.90;99.90
22716;DHT22;11525;51.152;4.456;2024-03-02T12:36:41;14.10;99.90
22716;DHT22;11525;51.152;4.456;2024-03-02T12:39:08;14.00;99.90
22716;DHT22;11525;51.152;4.456;2024-03-02T12:41:37;14.00;99.90
22716;DHT22;11525;51.152;4.456;2024-03-02T12:44:03;14.10;99.90
22716;DHT22;11525;51.152;4.456;2024-03-02T12:46:30;14.30;99.90
22716;DHT22;11525;51.152;4.456;2024-03-02T12:48:56;14.40;99.90
22716;DHT22;11525;51.152;4.456;2024-03-02T12:51:21;14.60;99.90
22716;DHT22;11525;51.152;4.456;2024-03-02T12:53:54;14.30;99.90
22716;DHT22;11525;51.152;4.456;2024-03-02T12:56:20;14.10;99.90
22716;DHT22;11525;51.152;4.456;2024-03-02T12:58:46;14.00;99.90
22716;DHT22;11525;51.152;4.456;2024-03-02T13:01:15;13.90;99.90
22716;DHT22;11525;51.152;4.456;2024-03-02T13:03:43;14.00;99.90
22716;DHT22;11525;51.152;4.456;2024-03-02T13:06:09;14.20;99.90
22716;DHT22;11525;51.152;4.456;2024-03-02T13:08:35;14.40;99.90
22716;DHT22;11525;51.152;4.456;2024-03-02T13:11:01;14.40;99.90
22716;DHT22;11525;51.152;4.456;2024-03-02T13:13:31;13.90;99.90
22716;DHT22;11525;51.152;4.456;2024-03-02T13:15:56;13.70;99.90
22716;DHT22;11525;51.152;4.456;2024-03-02T13:18:22;13.70;99.90
22716;DHT22;11525;51.152;4.456;2024-03-02T13:20:48;14.00;99.90
22716;DHT22;11525;51.152;4.456;2024-03-02T13:23:14;14.20;99.90
22716;DHT22;11525;51.152;4.456;2024-03-02T13:25:40;14.40;99.90
22716;DHT22;11525;51.152;4.456;2024-03-02T13:28:06;14.30;99.90
22716;DHT22;11525;51.152;4.456;2024-03-02T13:30:32;14.20;99.90
22716;DHT22;11525;51.152;4.456;2024-03-02T13:32:58;13.90;99.90
22716;DHT22;11525;51.152;4.456;2024-03-02T13:35:24;13.60;99.90
22716;DHT22;11525;51.152;4.456;2024-03-02T13:37:49;13.30;99.90
22716;DHT22;11525;51.152;4.456;2024-03-02T13:40:16;13.30;99.90
22716;DHT22;11525;51.152;4.456;2024-03-02T13:42:46;13.30;99.90
22716;DHT22;11525;51.152;4.456;2024-03-02T13:45:12;13.30;99.90
22716;DHT22;11525;51.152;4.456;2024-03-02T13:47:38;13.40;99.90
22716;DHT22;11525;51.152;4.456;2024-03-02T13:50:04;13.30;99.90
22716;DHT22;11525;51.152;4.456;2024-03-02T13:52:31;13.40;99.90
22716;DHT22;11525;51.152;4.456;2024-03-02T13:54:56;13.40;99.90
22716;DHT22;11525;51.152;4.456;2024-03-02T13:57:22;13.50;99.90
22716;DHT22;11525;51.152;4.456;2024-03-02T13:59:48;13.40;99.90
22716;DHT22;11525;51.152;4.456;2024-03-02T14:02:14;13.60;99.90
22716;DHT22;11525;51.152;4.456;2024-03-02T14:04:40;13.60;99.90
22716;DHT22;11525;51.152;4.456;2024-03-02T14:07:06;13.80;99.90
22716;DHT22;11525;51.152;4.456;2024-03-02T14:09:37;13.80;99.90
22716;DHT22;11525;51.152;4.456;2024-03-02T14:12:03;13.70;99.90
22716;DHT22;11525;51.152;4.456;2024-03-02T14:14:29;13.50;99.90
22716;DHT22;11525;51.152;4.456;2024-03-02T14:16:55;13.50;99.90
22716;DHT22;11525;51.152;4.456;2024-03-02T14:19:29;13.70;99.90
22716;DHT22;11525;51.152;4.456;2024-03-02T14:21:55;13.50;99.90
22716;DHT22;11525;51.152;4.456;2024-03-02T14:24:21;13.60;99.90
22716;DHT22;11525;51.152;4.456;2024-03-02T14:26:52;13.30;99.90
22716;DHT22;11525;51.152;4.456;2024-03-02T14:29:18;13.40;99.90
22716;DHT22;11525;51.152;4.456;2024-03-02T14:31:44;13.50;99.90
22716;DHT22;11525;51.152;4.456;2024-03-02T14:34:16;13.30;99.90
22716;DHT22;11525;51.152;4.456;2024-03-02T14:36:41;13.30;99.90
22716;DHT22;11525;51.152;4.456;2024-03-02T14:39:10;13.40;99.90
22716;DHT22;11525;51.152;4.456;2024-03-02T14:41:36;13.30;99.90
22716;DHT22;11525;51.152;4.456;2024-03-02T14:44:02;13.30;99.90
22716;DHT22;11525;51.152;4.456;2024-03-02T14:46:28;13.30;99.90
22716;DHT22;11525;51.152;4.456;2024-03-02T14:48:54;13.60;99.90
22716;DHT22;11525;51.152;4.456;2024-03-02T14:51:19;13.50;99.90
22716;DHT22;11525;51.152;4.456;2024-03-02T14:53:45;13.70;99.90
22716;DHT22;11525;51.152;4.456;2024-03-02T14:56:10;13.80;99.90
22716;DHT22;11525;51.152;4.456;2024-03-02T14:58:38;13.80;99.90
22716;DHT22;11525;51.152;4.456;2024-03-02T15:01:04;13.70;99.90
22716;DHT22;11525;51.152;4.456;2024-03-02T15:03:31;13.40;99.90
22716;DHT22;11525;51.152;4.456;2024-03-02T15:05:57;13.50;99.90
22716;DHT22;11525;51.152;4.456;2024-03-02T15:08:23;13.50;99.90
22716;DHT22;11525;51.152;4.456;2024-03-02T15:10:49;13.50;99.90
22716;DHT22;11525;51.152;4.456;2024-03-02T15:13:14;13.50;99.90
22716;DHT22;11525;51.152;4.456;2024-03-02T15:15:41;13.40;99.90
22716;DHT22;11525;51.152;4.456;2024-03-02T15:18:06;13.30;99.90
22716;DHT22;11525;51.152;4.456;2024-03-02T15:20:33;13.40;99.90
22716;DHT22;11525;51.152;4.456;2024-03-02T15:22:59;13.50;99.90
22716;DHT22;11525;51.152;4.456;2024-03-02T15:25:25;13.70;99.90
22716;DHT22;11525;51.152;4.456;2024-03-02T15:27:50;13.50;99.90
22716;DHT22;11525;51.152;4.456;2024-03-02T15:30:16;13.40;99.90
22716;DHT22;11525;51.152;4.456;2024-03-02T15:32:42;13.60;99.90
22716;DHT22;11525;51.152;4.456;2024-03-02T15:35:08;13.50;99.90
22716;DHT22;11525;51.152;4.456;2024-03-02T15:37:36;13.50;99.90
22716;DHT22;11525;51.152;4.456;2024-03-02T15:40:02;13.60;99.90
22716;DHT22;11525;51.152;4.456;2024-03-02T15:42:35;13.50;99.90
22716;DHT22;11525;51.152;4.456;2024-03-02T15:45:01;13.50;99.90
22716;DHT22;11525;51.152;4.456;2024-03-02T15:47:27;13.30;99.90